sensor_id;sensor_type;location;lat;lon;timestamp;P1;durP1;ratioP1;P2;durP2;ratioP2
8260;SDS011;64115;50.170;8.242;2023-02-12T00:01:49;88.17;;;30.73;;
8260;SDS011;64115;50.170;8.242;2023-02-12T00:04:15;94.67;;;30.73;;
8260;SDS011;64115;50.170;8.242;2023-02-12T00:06:42;79.13;;;29.33;;
8260;SDS011;64115;50.170;8.242;2023-02-12T00:09:09;85.17;;;29.53;;
8260;SDS011;64115;50.170;8.242;2023-02-12T00:11:38;97.20;;;29.00;;
8260;SDS011;64115;50.170;8.242;2023-02-12T00:14:05;82.70;;;28.57;;
8260;SDS011;64115;50.170;8.242;2023-02-12T00:16:32;91.10;;;29.80;;
8260;SDS011;64115;50.170;8.242;2023-02-12T00:18:59;101.33;;;29.83;;
8260;SDS011;64115;50.170;8.242;2023-02-12T00:21:26;89.90;;;31.10;;
8260;SDS011;64115;50.170;8.242;2023-02-12T00:23:54;101.87;;;30.03;;
8260;SDS011;64115;50.170;8.242;2023-02-12T00:26:21;88.60;;;29.93;;
8260;SDS011;64115;50.170;8.242;2023-02-12T00:28:50;77.50;;;28.43;;
8260;SDS011;64115;50.170;8.242;2023-02-12T00:31:19;88.73;;;30.30;;
8260;SDS011;64115;50.170;8.242;2023-02-12T00:33:48;94.10;;;30.43;;
8260;SDS011;64115;50.170;8.242;2023-02-12T00:36:16;113.97;;;30.90;;
8260;SDS011;64115;50.170;8.242;2023-02-12T00:38:45;86.73;;;30.03;;
8260;SDS011;64115;50.170;8.242;2023-02-12T00:41:13;80.03;;;29.63;;
8260;SDS011;64115;50.170;8.242;2023-02-12T00:43:41;78.83;;;29.50;;
8260;SDS011;64115;50.170;8.242;2023-02-12T00:46:09;75.80;;;28.23;;
8260;SDS011;64115;50.170;8.242;2023-02-12T00:48:36;84.27;;;30.50;;
8260;SDS011;64115;50.170;8.242;2023-02-12T00:51:03;74.33;;;29.00;;
8260;SDS011;64115;50.170;8.242;2023-02-12T00:53:31;82.27;;;29.93;;
8260;SDS011;64115;50.170;8.242;2023-02-12T00:55:59;85.13;;;28.97;;
8260;SDS011;64115;50.170;8.242;2023-02-12T00:58:26;85.07;;;30.10;;
8260;SDS011;64115;50.170;8.242;2023-02-12T01:00:53;93.13;;;29.57;;
8260;SDS011;64115;50.170;8.242;2023-02-12T01:03:22;75.37;;;28.37;;
8260;SDS011;64115;50.170;8.242;2023-02-12T01:05:49;80.07;;;28.17;;
8260;SDS011;64115;50.170;8.242;2023-02-12T01:08:16;84.87;;;30.53;;
8260;SDS011;64115;50.170;8.242;2023-02-12T01:10:43;81.13;;;28.87;;
8260;SDS011;64115;50.170;8.242;2023-02-12T01:13:10;85.03;;;29.03;;
8260;SDS011;64115;50.170;8.242;2023-02-12T01:15:38;83.67;;;29.40;;
8260;SDS011;64115;50.170;8.242;2023-02-12T01:18:05;92.93;;;31.77;;
8260;SDS011;64115;50.170;8.242;2023-02-12T01:20:34;90.73;;;30.80;;
8260;SDS011;64115;50.170;8.242;2023-02-12T01:23:01;83.07;;;29.27;;
8260;SDS011;64115;50.170;8.242;2023-02-12T01:25:31;72.80;;;27.87;;
8260;SDS011;64115;50.170;8.242;2023-02-12T01:27:58;80.33;;;30.03;;
8260;SDS011;64115;50.170;8.242;2023-02-12T01:30:25;80.53;;;30.77;;
8260;SDS011;64115;50.170;8.242;2023-02-12T01:32:51;104.47;;;30.77;;
8260;SDS011;64115;50.170;8.242;2023-02-12T01:35:19;112.97;;;32.73;;
8260;SDS011;64115;50.170;8.242;2023-02-12T01:37:47;94.00;;;31.53;;
8260;SDS011;64115;50.170;8.242;2023-02-12T01:40:15;112.63;;;32.33;;
8260;SDS011;64115;50.170;8.242;2023-02-12T01:42:43;103.10;;;32.30;;
8260;SDS011;64115;50.170;8.242;2023-02-12T01:48:18;107.80;;;31.43;;
8260;SDS011;64115;50.170;8.242;2023-02-12T01:50:48;145.27;;;33.50;;
8260;SDS011;64115;50.170;8.242;2023-02-12T01:53:18;138.50;;;33.37;;
8260;SDS011;64115;50.170;8.242;2023-02-12T01:55:50;105.83;;;31.07;;
8260;SDS011;64115;50.170;8.242;2023-02-12T01:58:21;135.63;;;33.97;;
8260;SDS011;64115;50.170;8.242;2023-02-12T02:00:50;98.20;;;31.07;;
8260;SDS011;64115;50.170;8.242;2023-02-12T02:03:17;150.07;;;34.60;;
8260;SDS011;64115;50.170;8.242;2023-02-12T02:05:46;121.33;;;33.17;;
8260;SDS011;64115;50.170;8.242;2023-02-12T02:08:20;169.43;;;35.93;;
8260;SDS011;64115;50.170;8.242;2023-02-12T02:10:48;120.50;;;33.70;;
8260;SDS011;64115;50.170;8.242;2023-02-12T02:13:15;201.03;;;37.47;;
8260;SDS011;64115;50.170;8.242;2023-02-12T02:16:01;124.43;;;33.57;;
8260;SDS011;64115;50.170;8.242;2023-02-12T02:18:37;199.63;;;37.00;;
8260;SDS011;64115;50.170;8.242;2023-02-12T02:21:30;124.10;;;35.63;;
8260;SDS011;64115;50.170;8.242;2023-02-12T02:24:32;159.00;;;35.00;;
8260;SDS011;64115;50.170;8.242;2023-02-12T02:27:20;146.43;;;36.17;;
8260;SDS011;64115;50.170;8.242;2023-02-12T02:30:12;236.67;;;38.53;;
8260;SDS011;64115;50.170;8.242;2023-02-12T02:32:58;469.20;;;44.97;;
8260;SDS011;64115;50.170;8.242;2023-02-12T02:35:37;422.40;;;44.33;;
8260;SDS011;64115;50.170;8.242;2023-02-12T02:38:16;364.40;;;42.40;;
8260;SDS011;64115;50.170;8.242;2023-02-12T02:40:49;243.37;;;38.77;;
8260;SDS011;64115;50.170;8.242;2023-02-12T02:43:22;695.97;;;49.00;;
8260;SDS011;64115;50.170;8.242;2023-02-12T02:45:55;445.40;;;45.20;;
8260;SDS011;64115;50.170;8.242;2023-02-12T02:48:28;683.87;;;48.20;;
8260;SDS011;64115;50.170;8.242;2023-02-12T02:51:00;168.57;;;35.10;;
8260;SDS011;64115;50.170;8.242;2023-02-12T02:53:32;179.27;;;35.47;;
8260;SDS011;64115;50.170;8.242;2023-02-12T02:56:02;202.77;;;38.63;;
8260;SDS011;64115;50.170;8.242;2023-02-12T02:58:34;420.23;;;43.87;;
8260;SDS011;64115;50.170;8.242;2023-02-12T03:01:08;414.73;;;41.50;;
8260;SDS011;64115;50.170;8.242;2023-02-12T03:03:39;377.90;;;42.73;;
8260;SDS011;64115;50.170;8.242;2023-02-12T03:06:12;217.90;;;36.17;;
8260;SDS011;64115;50.170;8.242;2023-02-12T03:08:45;202.17;;;35.83;;
8260;SDS011;64115;50.170;8.242;2023-02-12T03:11:18;172.43;;;32.53;;
8260;SDS011;64115;50.170;8.242;2023-02-12T03:13:49;163.60;;;32.67;;
8260;SDS011;64115;50.170;8.242;2023-02-12T03:16:26;137.00;;;31.90;;
8260;SDS011;64115;50.170;8.242;2023-02-12T03:18:57;98.07;;;28.10;;
8260;SDS011;64115;50.170;8.242;2023-02-12T03:21:31;103.00;;;28.83;;
8260;SDS011;64115;50.170;8.242;2023-02-12T03:24:06;110.87;;;30.97;;
8260;SDS011;64115;50.170;8.242;2023-02-12T03:26:40;125.93;;;30.53;;
8260;SDS011;64115;50.170;8.242;2023-02-12T03:29:11;205.00;;;33.60;;
8260;SDS011;64115;50.170;8.242;2023-02-12T03:31:44;172.80;;;31.53;;
8260;SDS011;64115;50.170;8.242;2023-02-12T03:34:23;125.97;;;31.27;;
8260;SDS011;64115;50.170;8.242;2023-02-12T03:36:55;207.10;;;33.67;;
8260;SDS011;64115;50.170;8.242;2023-02-12T03:39:27;187.30;;;35.30;;
8260;SDS011;64115;50.170;8.242;2023-02-12T03:42:01;211.80;;;34.73;;
8260;SDS011;64115;50.170;8.242;2023-02-12T03:44:45;247.50;;;35.90;;
8260;SDS011;64115;50.170;8.242;2023-02-12T03:47:24;234.20;;;35.30;;
8260;SDS011;64115;50.170;8.242;2023-02-12T03:49:58;360.97;;;38.93;;
8260;SDS011;64115;50.170;8.242;2023-02-12T03:52:32;301.30;;;36.37;;
8260;SDS011;64115;50.170;8.242;2023-02-12T03:54:59;147.17;;;33.03;;
8260;SDS011;64115;50.170;8.242;2023-02-12T03:57:28;341.23;;;38.77;;
8260;SDS011;64115;50.170;8.242;2023-02-12T03:59:59;376.83;;;40.10;;
8260;SDS011;64115;50.170;8.242;2023-02-12T04:02:31;149.13;;;33.20;;
8260;SDS011;64115;50.170;8.242;2023-02-12T04:05:02;322.40;;;39.53;;
8260;SDS011;64115;50.170;8.242;2023-02-12T04:07:31;413.40;;;40.20;;
8260;SDS011;64115;50.170;8.242;2023-02-12T04:09:58;316.37;;;38.00;;
8260;SDS011;64115;50.170;8.242;2023-02-12T04:12:30;153.67;;;34.37;;
8260;SDS011;64115;50.170;8.242;2023-02-12T04:15:27;160.67;;;34.90;;
8260;SDS011;64115;50.170;8.242;2023-02-12T04:18:06;166.50;;;34.50;;
8260;SDS011;64115;50.170;8.242;2023-02-12T04:20:40;512.07;;;44.67;;
8260;SDS011;64115;50.170;8.242;2023-02-12T04:23:16;176.93;;;35.70;;
8260;SDS011;64115;50.170;8.242;2023-02-12T04:25:51;152.90;;;34.00;;
8260;SDS011;64115;50.170;8.242;2023-02-12T04:28:27;140.63;;;33.43;;
8260;SDS011;64115;50.170;8.242;2023-02-12T04:31:03;150.70;;;34.03;;
8260;SDS011;64115;50.170;8.242;2023-02-12T04:33:40;156.77;;;34.80;;
8260;SDS011;64115;50.170;8.242;2023-02-12T04:36:12;228.27;;;36.63;;
8260;SDS011;64115;50.170;8.242;2023-02-12T04:38:45;476.30;;;44.03;;
8260;SDS011;64115;50.170;8.242;2023-02-12T04:41:16;361.40;;;40.70;;
8260;SDS011;64115;50.170;8.242;2023-02-12T04:43:44;145.37;;;33.20;;
8260;SDS011;64115;50.170;8.242;2023-02-12T04:46:11;137.20;;;31.23;;
8260;SDS011;64115;50.170;8.242;2023-02-12T04:48:42;278.10;;;39.30;;
8260;SDS011;64115;50.170;8.242;2023-02-12T04:51:16;130.37;;;33.53;;
8260;SDS011;64115;50.170;8.242;2023-02-12T04:53:43;181.93;;;34.03;;
8260;SDS011;64115;50.170;8.242;2023-02-12T04:56:10;141.07;;;33.80;;
8260;SDS011;64115;50.170;8.242;2023-02-12T04:58:38;124.53;;;32.80;;
8260;SDS011;64115;50.170;8.242;2023-02-12T05:01:05;115.90;;;32.30;;
8260;SDS011;64115;50.170;8.242;2023-02-12T05:03:33;108.80;;;31.10;;
8260;SDS011;64115;50.170;8.242;2023-02-12T05:06:02;109.00;;;29.43;;
8260;SDS011;64115;50.170;8.242;2023-02-12T05:08:30;105.47;;;30.33;;
8260;SDS011;64115;50.170;8.242;2023-02-12T05:11:02;108.07;;;30.17;;
8260;SDS011;64115;50.170;8.242;2023-02-12T05:13:29;107.73;;;31.00;;
8260;SDS011;64115;50.170;8.242;2023-02-12T05:15:56;94.73;;;29.80;;
8260;SDS011;64115;50.170;8.242;2023-02-12T05:18:23;104.77;;;30.77;;
8260;SDS011;64115;50.170;8.242;2023-02-12T05:20:54;104.83;;;30.87;;
8260;SDS011;64115;50.170;8.242;2023-02-12T05:23:24;88.67;;;27.97;;
8260;SDS011;64115;50.170;8.242;2023-02-12T05:25:52;92.83;;;29.47;;
8260;SDS011;64115;50.170;8.242;2023-02-12T05:28:19;87.07;;;28.10;;
8260;SDS011;64115;50.170;8.242;2023-02-12T05:30:46;82.53;;;27.90;;
8260;SDS011;64115;50.170;8.242;2023-02-12T05:33:13;87.03;;;28.17;;
8260;SDS011;64115;50.170;8.242;2023-02-12T05:35:41;79.63;;;27.87;;
8260;SDS011;64115;50.170;8.242;2023-02-12T05:38:08;92.10;;;28.77;;
8260;SDS011;64115;50.170;8.242;2023-02-12T05:40:36;87.07;;;28.70;;
8260;SDS011;64115;50.170;8.242;2023-02-12T05:43:04;90.77;;;28.43;;
8260;SDS011;64115;50.170;8.242;2023-02-12T05:45:31;80.77;;;27.93;;
8260;SDS011;64115;50.170;8.242;2023-02-12T05:47:58;86.60;;;28.13;;
8260;SDS011;64115;50.170;8.242;2023-02-12T05:50:25;80.20;;;28.03;;
8260;SDS011;64115;50.170;8.242;2023-02-12T05:52:52;75.80;;;27.57;;
8260;SDS011;64115;50.170;8.242;2023-02-12T05:55:19;74.63;;;26.17;;
8260;SDS011;64115;50.170;8.242;2023-02-12T05:57:48;114.03;;;28.80;;
8260;SDS011;64115;50.170;8.242;2023-02-12T06:00:16;95.73;;;28.17;;
8260;SDS011;64115;50.170;8.242;2023-02-12T06:02:44;82.43;;;27.87;;
8260;SDS011;64115;50.170;8.242;2023-02-12T06:05:11;83.87;;;28.03;;
8260;SDS011;64115;50.170;8.242;2023-02-12T06:07:38;109.70;;;29.30;;
8260;SDS011;64115;50.170;8.242;2023-02-12T06:10:06;118.23;;;30.10;;
8260;SDS011;64115;50.170;8.242;2023-02-12T06:12:34;72.73;;;24.83;;
8260;SDS011;64115;50.170;8.242;2023-02-12T06:15:02;91.40;;;27.97;;
8260;SDS011;64115;50.170;8.242;2023-02-12T06:17:30;72.87;;;26.33;;
8260;SDS011;64115;50.170;8.242;2023-02-12T06:19:56;88.33;;;28.47;;
8260;SDS011;64115;50.170;8.242;2023-02-12T06:22:23;96.03;;;28.87;;
8260;SDS011;64115;50.170;8.242;2023-02-12T06:24:50;152.40;;;30.77;;
8260;SDS011;64115;50.170;8.242;2023-02-12T06:27:17;110.30;;;29.93;;
8260;SDS011;64115;50.170;8.242;2023-02-12T06:29:44;240.20;;;34.70;;
8260;SDS011;64115;50.170;8.242;2023-02-12T06:32:13;463.77;;;41.67;;
8260;SDS011;64115;50.170;8.242;2023-02-12T06:34:40;103.80;;;28.53;;
8260;SDS011;64115;50.170;8.242;2023-02-12T06:37:07;124.53;;;30.83;;
8260;SDS011;64115;50.170;8.242;2023-02-12T06:39:34;110.30;;;30.27;;
8260;SDS011;64115;50.170;8.242;2023-02-12T06:42:01;113.07;;;30.57;;
8260;SDS011;64115;50.170;8.242;2023-02-12T06:44:29;126.23;;;31.07;;
8260;SDS011;64115;50.170;8.242;2023-02-12T06:46:56;207.03;;;35.07;;
8260;SDS011;64115;50.170;8.242;2023-02-12T06:49:24;202.87;;;32.67;;
8260;SDS011;64115;50.170;8.242;2023-02-12T06:51:51;157.00;;;32.30;;
8260;SDS011;64115;50.170;8.242;2023-02-12T06:54:18;1032.87;;;61.00;;
8260;SDS011;64115;50.170;8.242;2023-02-12T06:56:45;142.80;;;32.30;;
8260;SDS011;64115;50.170;8.242;2023-02-12T06:59:13;155.47;;;32.70;;
8260;SDS011;64115;50.170;8.242;2023-02-12T07:01:41;243.87;;;34.47;;
8260;SDS011;64115;50.170;8.242;2023-02-12T07:04:09;146.70;;;31.10;;
8260;SDS011;64115;50.170;8.242;2023-02-12T07:06:38;150.67;;;33.03;;
8260;SDS011;64115;50.170;8.242;2023-02-12T07:09:05;173.13;;;31.90;;
8260;SDS011;64115;50.170;8.242;2023-02-12T07:11:33;221.17;;;34.57;;
8260;SDS011;64115;50.170;8.242;2023-02-12T07:14:01;924.50;;;55.43;;
8260;SDS011;64115;50.170;8.242;2023-02-12T07:16:28;117.43;;;31.50;;
8260;SDS011;64115;50.170;8.242;2023-02-12T07:18:55;120.77;;;31.30;;
8260;SDS011;64115;50.170;8.242;2023-02-12T07:21:22;262.40;;;35.13;;
8260;SDS011;64115;50.170;8.242;2023-02-12T07:23:51;195.77;;;33.17;;
8260;SDS011;64115;50.170;8.242;2023-02-12T07:26:19;217.97;;;33.50;;
8260;SDS011;64115;50.170;8.242;2023-02-12T07:28:47;267.50;;;35.93;;
8260;SDS011;64115;50.170;8.242;2023-02-12T07:31:15;115.53;;;30.33;;
8260;SDS011;64115;50.170;8.242;2023-02-12T07:33:44;148.27;;;29.70;;
8260;SDS011;64115;50.170;8.242;2023-02-12T07:36:12;478.17;;;40.27;;
8260;SDS011;64115;50.170;8.242;2023-02-12T07:38:40;351.87;;;37.20;;
8260;SDS011;64115;50.170;8.242;2023-02-12T07:41:10;142.43;;;31.27;;
8260;SDS011;64115;50.170;8.242;2023-02-12T07:43:39;300.73;;;36.50;;
8260;SDS011;64115;50.170;8.242;2023-02-12T07:46:08;132.77;;;30.47;;
8260;SDS011;64115;50.170;8.242;2023-02-12T07:48:37;183.63;;;33.73;;
8260;SDS011;64115;50.170;8.242;2023-02-12T07:51:05;150.03;;;32.47;;
8260;SDS011;64115;50.170;8.242;2023-02-12T07:53:34;161.97;;;34.50;;
8260;SDS011;64115;50.170;8.242;2023-02-12T07:56:10;233.13;;;34.33;;
8260;SDS011;64115;50.170;8.242;2023-02-12T07:58:39;230.87;;;31.83;;
8260;SDS011;64115;50.170;8.242;2023-02-12T08:01:13;227.40;;;33.27;;
8260;SDS011;64115;50.170;8.242;2023-02-12T08:03:43;322.40;;;35.30;;
8260;SDS011;64115;50.170;8.242;2023-02-12T08:06:11;319.30;;;35.57;;
8260;SDS011;64115;50.170;8.242;2023-02-12T08:08:39;514.50;;;41.07;;
8260;SDS011;64115;50.170;8.242;2023-02-12T08:11:06;384.13;;;39.10;;
8260;SDS011;64115;50.170;8.242;2023-02-12T08:13:36;130.40;;;30.83;;
8260;SDS011;64115;50.170;8.242;2023-02-12T08:16:04;132.67;;;30.17;;
8260;SDS011;64115;50.170;8.242;2023-02-12T08:18:33;143.83;;;29.23;;
8260;SDS011;64115;50.170;8.242;2023-02-12T08:21:01;129.93;;;29.30;;
8260;SDS011;64115;50.170;8.242;2023-02-12T08:23:29;112.20;;;27.53;;
8260;SDS011;64115;50.170;8.242;2023-02-12T08:26:03;110.20;;;27.70;;
8260;SDS011;64115;50.170;8.242;2023-02-12T08:28:31;123.40;;;27.70;;
8260;SDS011;64115;50.170;8.242;2023-02-12T08:31:01;135.00;;;28.10;;
8260;SDS011;64115;50.170;8.242;2023-02-12T08:33:28;110.03;;;27.37;;
8260;SDS011;64115;50.170;8.242;2023-02-12T08:36:02;136.20;;;27.83;;
8260;SDS011;64115;50.170;8.242;2023-02-12T08:38:31;148.33;;;29.00;;
8260;SDS011;64115;50.170;8.242;2023-02-12T08:41:02;133.33;;;28.50;;
8260;SDS011;64115;50.170;8.242;2023-02-12T08:43:30;81.40;;;24.67;;
8260;SDS011;64115;50.170;8.242;2023-02-12T08:46:02;84.93;;;25.90;;
8260;SDS011;64115;50.170;8.242;2023-02-12T08:48:31;216.20;;;29.40;;
8260;SDS011;64115;50.170;8.242;2023-02-12T08:51:05;117.57;;;26.73;;
8260;SDS011;64115;50.170;8.242;2023-02-12T08:53:33;130.87;;;27.80;;
8260;SDS011;64115;50.170;8.242;2023-02-12T08:56:00;94.07;;;25.33;;
8260;SDS011;64115;50.170;8.242;2023-02-12T08:58:27;103.63;;;26.73;;
8260;SDS011;64115;50.170;8.242;2023-02-12T09:00:54;90.07;;;26.93;;
8260;SDS011;64115;50.170;8.242;2023-02-12T09:03:23;80.17;;;26.20;;
8260;SDS011;64115;50.170;8.242;2023-02-12T09:05:50;69.97;;;24.07;;
8260;SDS011;64115;50.170;8.242;2023-02-12T09:08:17;62.87;;;23.07;;
8260;SDS011;64115;50.170;8.242;2023-02-12T09:10:44;55.67;;;21.83;;
8260;SDS011;64115;50.170;8.242;2023-02-12T09:13:13;68.97;;;23.83;;
8260;SDS011;64115;50.170;8.242;2023-02-12T09:15:41;63.57;;;23.27;;
8260;SDS011;64115;50.170;8.242;2023-02-12T09:18:09;59.10;;;22.77;;
8260;SDS011;64115;50.170;8.242;2023-02-12T09:20:39;50.77;;;21.03;;
8260;SDS011;64115;50.170;8.242;2023-02-12T09:23:09;53.40;;;21.90;;
8260;SDS011;64115;50.170;8.242;2023-02-12T09:25:38;47.67;;;21.17;;
8260;SDS011;64115;50.170;8.242;2023-02-12T09:28:06;43.03;;;19.90;;
8260;SDS011;64115;50.170;8.242;2023-02-12T09:30:33;46.73;;;20.00;;
8260;SDS011;64115;50.170;8.242;2023-02-12T09:33:04;51.00;;;21.30;;
8260;SDS011;64115;50.170;8.242;2023-02-12T09:35:32;45.33;;;20.13;;
8260;SDS011;64115;50.170;8.242;2023-02-12T09:38:02;43.40;;;18.93;;
8260;SDS011;64115;50.170;8.242;2023-02-12T09:40:31;42.83;;;19.97;;
8260;SDS011;64115;50.170;8.242;2023-02-12T09:43:10;48.70;;;21.63;;
8260;SDS011;64115;50.170;8.242;2023-02-12T09:45:45;48.37;;;21.13;;
8260;SDS011;64115;50.170;8.242;2023-02-12T09:48:25;44.27;;;19.77;;
8260;SDS011;64115;50.170;8.242;2023-02-12T09:51:02;44.57;;;20.57;;
8260;SDS011;64115;50.170;8.242;2023-02-12T09:53:34;42.90;;;19.77;;
8260;SDS011;64115;50.170;8.242;2023-02-12T09:56:14;39.87;;;19.37;;
8260;SDS011;64115;50.170;8.242;2023-02-12T09:58:44;47.70;;;20.10;;
8260;SDS011;64115;50.170;8.242;2023-02-12T10:01:16;39.60;;;17.97;;
8260;SDS011;64115;50.170;8.242;2023-02-12T10:03:45;41.60;;;19.67;;
8260;SDS011;64115;50.170;8.242;2023-02-12T10:06:15;38.47;;;19.13;;
8260;SDS011;64115;50.170;8.242;2023-02-12T10:08:56;20.13;;;11.00;;
8260;SDS011;64115;50.170;8.242;2023-02-12T10:11:49;18.97;;;11.20;;
8260;SDS011;64115;50.170;8.242;2023-02-12T10:14:43;22.03;;;12.03;;
8260;SDS011;64115;50.170;8.242;2023-02-12T10:17:26;20.83;;;12.53;;
8260;SDS011;64115;50.170;8.242;2023-02-12T10:20:03;18.47;;;11.13;;
8260;SDS011;64115;50.170;8.242;2023-02-12T10:22:42;21.87;;;11.77;;
8260;SDS011;64115;50.170;8.242;2023-02-12T10:25:19;21.73;;;12.50;;
8260;SDS011;64115;50.170;8.242;2023-02-12T10:27:52;21.63;;;12.10;;
8260;SDS011;64115;50.170;8.242;2023-02-12T10:30:21;22.87;;;12.50;;
8260;SDS011;64115;50.170;8.242;2023-02-12T10:32:54;15.30;;;9.33;;
8260;SDS011;64115;50.170;8.242;2023-02-12T10:35:25;15.03;;;9.80;;
8260;SDS011;64115;50.170;8.242;2023-02-12T10:37:55;18.70;;;10.77;;
8260;SDS011;64115;50.170;8.242;2023-02-12T10:40:29;18.63;;;11.87;;
8260;SDS011;64115;50.170;8.242;2023-02-12T10:42:58;14.60;;;10.13;;
8260;SDS011;64115;50.170;8.242;2023-02-12T10:45:28;18.23;;;11.37;;
8260;SDS011;64115;50.170;8.242;2023-02-12T10:48:05;17.43;;;11.20;;
8260;SDS011;64115;50.170;8.242;2023-02-12T10:50:40;18.23;;;11.17;;
8260;SDS011;64115;50.170;8.242;2023-02-12T10:53:15;17.63;;;10.77;;
8260;SDS011;64115;50.170;8.242;2023-02-12T10:55:47;18.90;;;11.50;;
8260;SDS011;64115;50.170;8.242;2023-02-12T10:58:18;20.87;;;12.00;;
8260;SDS011;64115;50.170;8.242;2023-02-12T11:00:54;16.83;;;11.23;;
8260;SDS011;64115;50.170;8.242;2023-02-12T11:03:27;15.70;;;10.67;;
8260;SDS011;64115;50.170;8.242;2023-02-12T11:06:08;16.23;;;10.57;;
8260;SDS011;64115;50.170;8.242;2023-02-12T11:08:38;14.73;;;9.67;;
8260;SDS011;64115;50.170;8.242;2023-02-12T11:11:08;13.00;;;8.93;;
8260;SDS011;64115;50.170;8.242;2023-02-12T11:13:38;15.00;;;9.77;;
8260;SDS011;64115;50.170;8.242;2023-02-12T11:16:06;15.80;;;10.20;;
8260;SDS011;64115;50.170;8.242;2023-02-12T11:18:34;21.47;;;12.80;;
8260;SDS011;64115;50.170;8.242;2023-02-12T11:21:03;16.70;;;11.47;;
8260;SDS011;64115;50.170;8.242;2023-02-12T11:23:32;17.67;;;11.33;;
8260;SDS011;64115;50.170;8.242;2023-02-12T11:26:02;19.60;;;11.73;;
8260;SDS011;64115;50.170;8.242;2023-02-12T11:28:33;17.37;;;11.03;;
8260;SDS011;64115;50.170;8.242;2023-02-12T11:31:02;18.37;;;12.13;;
8260;SDS011;64115;50.170;8.242;2023-02-12T11:33:45;20.23;;;11.97;;
8260;SDS011;64115;50.170;8.242;2023-02-12T11:36:14;23.53;;;13.87;;
8260;SDS011;64115;50.170;8.242;2023-02-12T11:38:47;21.93;;;13.50;;
8260;SDS011;64115;50.170;8.242;2023-02-12T11:41:20;19.87;;;12.37;;
8260;SDS011;64115;50.170;8.242;2023-02-12T11:43:53;21.83;;;12.70;;
8260;SDS011;64115;50.170;8.242;2023-02-12T11:46:21;23.60;;;14.53;;
8260;SDS011;64115;50.170;8.242;2023-02-12T11:48:50;20.20;;;12.73;;
8260;SDS011;64115;50.170;8.242;2023-02-12T11:51:20;20.30;;;12.87;;
8260;SDS011;64115;50.170;8.242;2023-02-12T11:53:54;19.40;;;12.37;;
8260;SDS011;64115;50.170;8.242;2023-02-12T11:56:24;18.30;;;12.17;;
8260;SDS011;64115;50.170;8.242;2023-02-12T11:59:10;18.87;;;11.67;;
8260;SDS011;64115;50.170;8.242;2023-02-12T12:01:46;14.07;;;9.20;;
8260;SDS011;64115;50.170;8.242;2023-02-12T12:04:16;12.43;;;9.47;;
8260;SDS011;64115;50.170;8.242;2023-02-12T12:06:50;16.20;;;10.00;;
8260;SDS011;64115;50.170;8.242;2023-02-12T12:09:23;10.40;;;8.03;;
8260;SDS011;64115;50.170;8.242;2023-02-12T12:11:56;11.13;;;8.57;;
8260;SDS011;64115;50.170;8.242;2023-02-12T12:14:30;10.83;;;7.70;;
8260;SDS011;64115;50.170;8.242;2023-02-12T12:17:23;8.43;;;6.57;;
8260;SDS011;64115;50.170;8.242;2023-02-12T12:20:11;8.53;;;6.57;;
8260;SDS011;64115;50.170;8.242;2023-02-12T12:22:43;6.80;;;5.80;;
8260;SDS011;64115;50.170;8.242;2023-02-12T12:25:20;9.30;;;6.53;;
8260;SDS011;64115;50.170;8.242;2023-02-12T12:27:53;5.50;;;4.53;;
8260;SDS011;64115;50.170;8.242;2023-02-12T12:30:35;5.53;;;5.00;;
8260;SDS011;64115;50.170;8.242;2023-02-12T12:33:12;7.10;;;5.33;;
8260;SDS011;64115;50.170;8.242;2023-02-12T12:35:44;3.63;;;3.33;;
8260;SDS011;64115;50.170;8.242;2023-02-12T12:38:22;3.67;;;2.97;;
8260;SDS011;64115;50.170;8.242;2023-02-12T12:41:05;2.60;;;2.40;;
8260;SDS011;64115;50.170;8.242;2023-02-12T12:43:41;3.00;;;2.70;;
8260;SDS011;64115;50.170;8.242;2023-02-12T12:46:24;5.47;;;3.60;;
8260;SDS011;64115;50.170;8.242;2023-02-12T12:49:06;5.53;;;4.73;;
8260;SDS011;64115;50.170;8.242;2023-02-12T12:51:58;2.60;;;2.40;;
8260;SDS011;64115;50.170;8.242;2023-02-12T12:54:39;2.47;;;2.27;;
8260;SDS011;64115;50.170;8.242;2023-02-12T12:57:25;2.97;;;2.77;;
8260;SDS011;64115;50.170;8.242;2023-02-12T13:03:08;3.40;;;3.10;;
8260;SDS011;64115;50.170;8.242;2023-02-12T13:09:05;4.07;;;3.37;;
8260;SDS011;64115;50.170;8.242;2023-02-12T13:12:07;3.83;;;3.43;;
8260;SDS011;64115;50.170;8.242;2023-02-12T13:14:54;3.43;;;2.90;;
8260;SDS011;64115;50.170;8.242;2023-02-12T13:17:30;4.90;;;4.40;;
8260;SDS011;64115;50.170;8.242;2023-02-12T13:20:04;4.80;;;4.27;;
8260;SDS011;64115;50.170;8.242;2023-02-12T13:22:39;5.00;;;4.30;;
8260;SDS011;64115;50.170;8.242;2023-02-12T13:25:15;6.03;;;5.33;;
8260;SDS011;64115;50.170;8.242;2023-02-12T13:27:49;6.00;;;5.30;;
8260;SDS011;64115;50.170;8.242;2023-02-12T13:30:18;5.43;;;4.87;;
8260;SDS011;64115;50.170;8.242;2023-02-12T13:32:48;6.00;;;4.83;;
8260;SDS011;64115;50.170;8.242;2023-02-12T13:35:25;5.70;;;5.07;;
8260;SDS011;64115;50.170;8.242;2023-02-12T13:37:54;5.20;;;4.70;;
8260;SDS011;64115;50.170;8.242;2023-02-12T13:40:24;5.30;;;4.30;;
8260;SDS011;64115;50.170;8.242;2023-02-12T13:42:52;4.93;;;3.77;;
8260;SDS011;64115;50.170;8.242;2023-02-12T13:45:28;4.60;;;4.20;;
8260;SDS011;64115;50.170;8.242;2023-02-12T13:48:05;3.97;;;3.60;;
8260;SDS011;64115;50.170;8.242;2023-02-12T13:51:02;4.27;;;3.70;;
8260;SDS011;64115;50.170;8.242;2023-02-12T13:53:40;4.37;;;4.03;;
8260;SDS011;64115;50.170;8.242;2023-02-12T13:56:21;4.53;;;3.83;;
8260;SDS011;64115;50.170;8.242;2023-02-12T13:58:54;4.13;;;3.70;;
8260;SDS011;64115;50.170;8.242;2023-02-12T14:01:34;4.20;;;3.80;;
8260;SDS011;64115;50.170;8.242;2023-02-12T14:04:25;4.97;;;4.10;;
8260;SDS011;64115;50.170;8.242;2023-02-12T14:06:57;4.40;;;3.97;;
8260;SDS011;64115;50.170;8.242;2023-02-12T14:09:35;5.63;;;4.20;;
8260;SDS011;64115;50.170;8.242;2023-02-12T14:12:05;4.40;;;4.00;;
8260;SDS011;64115;50.170;8.242;2023-02-12T14:14:39;4.20;;;3.80;;
8260;SDS011;64115;50.170;8.242;2023-02-12T14:20:06;5.03;;;4.53;;
8260;SDS011;64115;50.170;8.242;2023-02-12T14:23:00;5.80;;;4.23;;
8260;SDS011;64115;50.170;8.242;2023-02-12T14:25:47;11.47;;;8.27;;
8260;SDS011;64115;50.170;8.242;2023-02-12T14:28:23;13.63;;;8.53;;
8260;SDS011;64115;50.170;8.242;2023-02-12T14:33:48;13.73;;;9.70;;
8260;SDS011;64115;50.170;8.242;2023-02-12T14:36:18;13.63;;;9.53;;
8260;SDS011;64115;50.170;8.242;2023-02-12T14:39:25;13.23;;;9.43;;
8260;SDS011;64115;50.170;8.242;2023-02-12T14:41:54;12.60;;;8.80;;
8260;SDS011;64115;50.170;8.242;2023-02-12T14:44:47;14.97;;;9.07;;
8260;SDS011;64115;50.170;8.242;2023-02-12T14:50:19;12.90;;;9.37;;
8260;SDS011;64115;50.170;8.242;2023-02-12T14:52:53;16.47;;;10.63;;
8260;SDS011;64115;50.170;8.242;2023-02-12T14:55:30;14.33;;;9.40;;
8260;SDS011;64115;50.170;8.242;2023-02-12T14:58:01;12.93;;;9.17;;
8260;SDS011;64115;50.170;8.242;2023-02-12T15:00:35;12.40;;;9.03;;
8260;SDS011;64115;50.170;8.242;2023-02-12T15:03:18;12.63;;;8.50;;
8260;SDS011;64115;50.170;8.242;2023-02-12T15:05:51;13.47;;;9.03;;
8260;SDS011;64115;50.170;8.242;2023-02-12T15:08:25;13.60;;;9.13;;
8260;SDS011;64115;50.170;8.242;2023-02-12T15:10:58;16.13;;;9.87;;
8260;SDS011;64115;50.170;8.242;2023-02-12T15:13:42;14.53;;;9.77;;
8260;SDS011;64115;50.170;8.242;2023-02-12T15:16:16;15.80;;;9.87;;
8260;SDS011;64115;50.170;8.242;2023-02-12T15:18:51;16.07;;;10.07;;
8260;SDS011;64115;50.170;8.242;2023-02-12T15:21:23;14.97;;;10.13;;